createdAt,value
2022-08-06T00:00:05.733Z,0.75
2022-08-06T00:02:42.869Z,0.80
2022-08-06T00:05:18.311Z,0.68
2022-08-06T00:07:53.448Z,0.85
2022-08-06T00:10:29.917Z,0.60
2022-08-06T00:13:04.324Z,0.52
2022-08-06T00:16:10.080Z,0.65
2022-08-06T00:18:24.119Z,0.60
2022-08-06T00:20:53.857Z,0.70
2022-08-06T00:23:24.649Z,0.60
2022-08-06T00:25:54.839Z,0.60
2022-08-06T00:28:32.143Z,0.70
2022-08-06T00:31:11.194Z,0.70
2022-08-06T00:33:50.169Z,0.65
2022-08-06T00:36:24.930Z,0.60
2022-08-06T00:38:58.045Z,0.57
2022-08-06T00:41:35.524Z,0.90
2022-08-06T00:44:12.393Z,0.50
2022-08-06T00:46:41.179Z,0.40
2022-08-06T00:49:11.761Z,0.52
2022-08-06T00:51:51.102Z,0.70
2022-08-06T00:54:28.783Z,0.55
2022-08-06T00:57:08.102Z,0.60
2022-08-06T00:59:40.442Z,0.73
2022-08-06T01:02:14.799Z,0.60
2022-08-06T01:04:43.043Z,0.60
2022-08-06T01:07:12.095Z,0.43
2022-08-06T01:09:46.019Z,0.60
2022-08-06T01:12:33.871Z,0.55
2022-08-06T01:15:16.033Z,0.60
2022-08-06T01:18:00.130Z,0.50
2022-08-06T01:21:58.578Z,0.60
2022-08-06T01:23:44.868Z,0.57
2022-08-06T01:26:37.154Z,0.50
2022-08-06T01:29:16.533Z,0.70
2022-08-06T01:32:19.131Z,0.73
2022-08-06T01:35:01.627Z,0.60
2022-08-06T01:38:03.680Z,0.55
2022-08-06T01:40:36.732Z,0.60
2022-08-06T01:43:22.693Z,0.60
2022-08-06T01:45:55.214Z,0.70
2022-08-06T01:48:28.458Z,0.47
2022-08-06T01:51:03.739Z,0.68
2022-08-06T01:54:02.683Z,0.63
2022-08-06T01:56:55.966Z,0.70
2022-08-06T01:59:18.674Z,0.70
2022-08-06T02:01:54.948Z,0.57
2022-08-06T02:04:30.823Z,0.63
2022-08-06T02:07:02.588Z,0.60
2022-08-06T02:09:37.667Z,0.93
2022-08-06T02:12:12.348Z,0.70
2022-08-06T02:14:57.149Z,0.88
2022-08-06T02:18:04.388Z,0.82
2022-08-06T02:20:52.994Z,1.08
2022-08-06T02:23:34.737Z,0.93
2022-08-06T02:26:05.397Z,1.20
2022-08-06T02:28:36.090Z,1.35
2022-08-06T02:31:08.444Z,1.27
2022-08-06T02:34:02.965Z,1.40
2022-08-06T02:36:50.037Z,1.30
2022-08-06T02:39:47.565Z,1.30
2022-08-06T02:42:36.085Z,1.40
2022-08-06T02:45:16.509Z,1.40
2022-08-06T02:48:09.237Z,1.60
2022-08-06T02:53:24.653Z,1.80
2022-08-06T02:56:00.668Z,1.60
2022-08-06T02:58:58.040Z,1.75
2022-08-06T03:01:43.073Z,1.70
2022-08-06T03:04:15.350Z,1.60
2022-08-06T03:06:49.109Z,1.75
2022-08-06T03:09:20.237Z,1.75
2022-08-06T03:11:51.589Z,1.88
2022-08-06T03:15:04.338Z,1.70
2022-08-06T03:17:14.522Z,2.13
2022-08-06T03:19:56.978Z,1.95
2022-08-06T03:22:36.270Z,2.03
2022-08-06T03:25:16.047Z,1.90
2022-08-06T03:30:31.991Z,1.80
2022-08-06T03:33:28.534Z,1.83
2022-08-06T03:36:01.741Z,1.60
2022-08-06T03:38:39.078Z,1.30
2022-08-06T03:41:09.638Z,1.40
2022-08-06T03:43:56.447Z,1.40
2022-08-06T03:46:48.535Z,1.70
2022-08-06T03:49:31.189Z,1.23
2022-08-06T03:52:14.945Z,1.30
2022-08-06T03:54:51.381Z,1.20
2022-08-06T03:57:29.614Z,1.20
2022-08-06T04:00:15.766Z,1.02
2022-08-06T04:02:55.528Z,1.10
2022-08-06T04:05:30.003Z,1.10
2022-08-06T04:08:06.446Z,0.95
2022-08-06T04:10:43.047Z,1.02
2022-08-06T04:14:03.305Z,0.97
2022-08-06T04:16:33.155Z,1.00
2022-08-06T04:19:09.007Z,1.10
2022-08-06T04:23:04.935Z,1.10
2022-08-06T04:24:30.433Z,0.90
2022-08-06T04:27:09.457Z,1.50
2022-08-06T04:29:56.769Z,2.28
2022-08-06T04:32:32.025Z,4.13
2022-08-06T04:36:05.539Z,9.00
2022-08-06T04:37:56.864Z,2.80
2022-08-06T04:40:35.621Z,1.92
2022-08-06T04:43:18.938Z,1.48
2022-08-06T04:46:16.965Z,1.20
2022-08-06T04:48:40.082Z,1.13
2022-08-06T04:52:35.928Z,1.00
2022-08-06T04:54:12.063Z,0.95
2022-08-06T04:56:49.732Z,0.93
2022-08-06T04:59:49.964Z,0.93
2022-08-06T05:02:18.908Z,0.90
2022-08-06T05:04:47.990Z,0.80
2022-08-06T05:07:51.400Z,0.90
2022-08-06T05:11:06.208Z,0.70
2022-08-06T05:13:40.429Z,0.65
2022-08-06T05:16:14.478Z,0.88
2022-08-06T05:19:20.759Z,1.10
2022-08-06T05:22:10.919Z,0.73
2022-08-06T05:25:14.527Z,0.90
2022-08-06T05:28:04.313Z,0.95
2022-08-06T05:30:48.103Z,3.40
2022-08-06T05:33:38.746Z,3.97
2022-08-06T05:36:19.649Z,2.00
2022-08-06T05:38:54.760Z,1.00
2022-08-06T05:41:33.373Z,1.00
2022-08-06T05:44:08.048Z,1.00
2022-08-06T05:46:46.177Z,0.95
2022-08-06T05:49:55.631Z,0.85
2022-08-06T05:52:30.947Z,1.73
2022-08-06T05:55:11.420Z,1.00
2022-08-06T05:57:57.764Z,0.93
2022-08-06T06:00:43.662Z,1.10
2022-08-06T06:03:25.272Z,1.00
2022-08-06T06:06:05.116Z,0.90
2022-08-06T06:08:57.630Z,0.98
2022-08-06T06:11:55.661Z,0.90
2022-08-06T06:14:43.207Z,1.10
2022-08-06T06:17:48.387Z,0.90
2022-08-06T06:21:03.200Z,0.90
2022-08-06T06:24:29.108Z,1.20
2022-08-06T06:27:42.992Z,0.90
2022-08-06T06:31:03.318Z,0.80
2022-08-06T06:33:42.045Z,1.00
2022-08-06T06:36:31.260Z,0.77
2022-08-06T06:40:00.472Z,0.80
2022-08-06T06:42:44.873Z,0.70
2022-08-06T06:46:07.805Z,0.90
2022-08-06T06:48:34.718Z,0.60
2022-08-06T06:51:41.050Z,0.90
2022-08-06T06:54:11.651Z,0.70
2022-08-06T06:56:56.364Z,0.80
2022-08-06T07:00:03.999Z,1.02
2022-08-06T07:02:31.393Z,0.85
2022-08-06T07:05:05.889Z,1.00
2022-08-06T07:07:43.589Z,0.82
2022-08-06T07:10:22.209Z,0.80
2022-08-06T07:12:53.578Z,1.05
2022-08-06T07:15:24.346Z,0.95
2022-08-06T07:17:58.952Z,1.00
2022-08-06T07:20:32.154Z,0.70
2022-08-06T07:24:06.413Z,0.60
2022-08-06T07:25:56.754Z,0.80
2022-08-06T07:28:33.841Z,0.95
2022-08-06T07:31:09.358Z,0.90
2022-08-06T07:34:00.522Z,1.20
2022-08-06T07:36:37.807Z,1.00
2022-08-06T07:39:18.668Z,0.88
2022-08-06T07:42:10.796Z,0.95
2022-08-06T07:44:56.614Z,1.00
2022-08-06T07:47:54.715Z,0.50
2022-08-06T07:50:26.829Z,0.60
2022-08-06T07:52:57.017Z,0.60
2022-08-06T07:55:37.068Z,0.63
2022-08-06T07:58:10.537Z,0.50
2022-08-06T08:00:41.926Z,1.10
2022-08-06T08:03:57.580Z,0.70
2022-08-06T08:06:27.589Z,0.57
2022-08-06T08:09:15.796Z,0.60
2022-08-06T08:12:25.944Z,0.63
2022-08-06T08:14:50.201Z,0.57
2022-08-06T08:17:30.161Z,0.50
2022-08-06T08:20:15.583Z,0.60
2022-08-06T08:22:51.845Z,0.60
2022-08-06T08:25:21.661Z,0.50
2022-08-06T08:28:12.071Z,0.95
2022-08-06T08:30:47.859Z,0.90
2022-08-06T08:33:20.619Z,0.60
2022-08-06T08:36:00.879Z,0.50
2022-08-06T08:38:31.163Z,0.50
2022-08-06T08:41:21.882Z,0.65
2022-08-06T08:44:26.701Z,0.60
2022-08-06T08:46:59.608Z,0.50
2022-08-06T08:50:11.475Z,1.00
2022-08-06T08:52:46.023Z,0.60
2022-08-06T08:57:11.729Z,0.45
2022-08-06T09:00:55.656Z,0.50
2022-08-06T09:03:24.062Z,0.55
2022-08-06T09:05:53.310Z,0.50
2022-08-06T09:08:59.614Z,0.50
2022-08-06T09:11:20.833Z,0.50
2022-08-06T09:14:02.345Z,0.60
2022-08-06T09:16:33.264Z,0.60
2022-08-06T09:19:05.540Z,0.60
2022-08-06T09:21:39.180Z,0.60
2022-08-06T09:24:12.244Z,0.60
2022-08-06T09:27:03.248Z,0.70
2022-08-06T09:30:11.548Z,0.60
2022-08-06T09:32:54.841Z,0.60
2022-08-06T09:35:45.077Z,0.47
2022-08-06T09:38:17.898Z,0.50
2022-08-06T09:41:15.633Z,0.70
2022-08-06T09:44:03.916Z,0.47
2022-08-06T09:46:47.664Z,0.50
2022-08-06T09:49:47.400Z,0.40
2022-08-06T09:52:17.269Z,0.55
2022-08-06T09:54:53.263Z,0.50
2022-08-06T09:57:33.074Z,0.40
2022-08-06T10:00:14.209Z,1.00
2022-08-06T10:02:45.743Z,0.50
2022-08-06T10:05:22.873Z,0.50
2022-08-06T10:08:11.620Z,0.50
2022-08-06T10:10:54.045Z,0.38
2022-08-06T10:13:39.106Z,0.50
2022-08-06T10:16:19.616Z,0.40
2022-08-06T10:18:56.644Z,0.40
2022-08-06T10:21:42.344Z,0.40
2022-08-06T10:24:26.195Z,0.35
2022-08-06T10:27:14.842Z,0.50
2022-08-06T10:29:55.623Z,0.68
2022-08-06T10:33:18.098Z,0.40
2022-08-06T10:35:58.548Z,0.65
2022-08-06T10:38:38.633Z,0.40
2022-08-06T10:41:28.029Z,0.38
2022-08-06T10:44:07.145Z,0.55
2022-08-06T10:46:36.492Z,0.50
2022-08-06T10:50:24.121Z,0.43
2022-08-06T10:51:59.005Z,0.45
2022-08-06T10:54:28.503Z,0.40
2022-08-06T10:56:58.883Z,0.50
2022-08-06T10:59:53.682Z,0.40
2022-08-06T11:02:40.482Z,0.40
2022-08-06T11:05:25.725Z,0.40
2022-08-06T11:08:51.948Z,0.35
2022-08-06T11:12:05.601Z,0.60
2022-08-06T11:14:38.642Z,0.40
2022-08-06T11:17:11.489Z,0.52
2022-08-06T11:19:46.883Z,0.47
2022-08-06T11:22:37.001Z,0.50
2022-08-06T11:25:26.292Z,0.30
2022-08-06T11:27:59.459Z,0.30
2022-08-06T11:30:55.502Z,0.30
2022-08-06T11:33:36.372Z,0.30
2022-08-06T11:36:13.612Z,0.60
2022-08-06T11:38:51.727Z,0.50
2022-08-06T11:41:50.225Z,0.30
2022-08-06T11:44:25.032Z,0.57
2022-08-06T11:47:16.734Z,0.50
2022-08-06T11:49:47.924Z,0.60
2022-08-06T11:52:39.847Z,0.43
2022-08-06T11:55:23.575Z,0.40
2022-08-06T11:58:16.956Z,0.50
2022-08-06T12:01:34.106Z,0.40
2022-08-06T12:03:53.113Z,0.47
2022-08-06T12:06:27.038Z,0.60
2022-08-06T12:09:36.045Z,0.47
2022-08-06T12:12:26.922Z,0.50
2022-08-06T12:15:02.143Z,0.40
2022-08-06T12:17:45.723Z,0.40
2022-08-06T12:20:49.105Z,0.55
2022-08-06T12:23:53.991Z,0.47
2022-08-06T12:26:14.041Z,0.40
2022-08-06T12:28:45.614Z,0.35
2022-08-06T12:31:35.551Z,0.40
2022-08-06T12:34:06.206Z,0.45
2022-08-06T12:36:37.530Z,0.40
2022-08-06T12:39:19.473Z,0.50
2022-08-06T12:41:58.321Z,0.40
2022-08-06T12:44:57.054Z,0.40
2022-08-06T12:48:04.502Z,0.50
2022-08-06T12:50:30.257Z,0.47
2022-08-06T12:53:07.959Z,0.60
2022-08-06T12:55:56.847Z,0.47
2022-08-06T12:58:41.321Z,0.40
2022-08-06T13:02:08.310Z,0.47
2022-08-06T13:04:10.425Z,0.70
2022-08-06T13:06:48.906Z,0.50
2022-08-06T13:09:37.481Z,0.63
2022-08-06T13:12:29.666Z,0.32
2022-08-06T13:15:22.263Z,0.43
2022-08-06T13:18:30.375Z,0.38
2022-08-06T13:20:58.785Z,0.55
2022-08-06T13:23:43.750Z,0.40
2022-08-06T13:26:15.711Z,0.30
2022-08-06T13:30:34.712Z,0.30
2022-08-06T13:32:27.921Z,0.50
2022-08-06T13:35:17.086Z,0.38
2022-08-06T13:37:56.671Z,0.50
2022-08-06T13:40:47.026Z,0.57
2022-08-06T13:43:38.329Z,0.45
2022-08-06T13:46:27.295Z,0.50
2022-08-06T13:49:01.508Z,0.40
2022-08-06T13:51:34.350Z,0.40
2022-08-06T13:54:15.604Z,0.40
2022-08-06T13:56:48.839Z,0.30
2022-08-06T13:59:42.456Z,0.40
2022-08-06T14:02:12.604Z,0.45
2022-08-06T14:04:49.869Z,0.35
2022-08-06T14:07:19.129Z,0.30
2022-08-06T14:10:09.408Z,0.40
2022-08-06T14:12:37.441Z,0.38
2022-08-06T14:15:12.831Z,0.43
2022-08-06T14:17:45.669Z,0.50
2022-08-06T14:22:52.389Z,0.40
2022-08-06T14:25:23.174Z,0.40
2022-08-06T14:27:56.443Z,0.50
2022-08-06T14:30:33.062Z,0.40
2022-08-06T14:33:10.238Z,0.40
2022-08-06T14:35:46.055Z,0.40
2022-08-06T14:38:32.789Z,0.52
2022-08-06T14:41:50.820Z,0.47
2022-08-06T14:44:31.143Z,0.70
2022-08-06T14:47:00.019Z,0.40
2022-08-06T14:49:38.318Z,0.38
2022-08-06T14:52:23.427Z,0.50
2022-08-06T14:55:06.564Z,0.40
2022-08-06T14:57:41.550Z,0.35
2022-08-06T15:00:34.708Z,0.40
2022-08-06T15:03:13.740Z,0.50
2022-08-06T15:06:00.189Z,0.50
2022-08-06T15:08:35.659Z,0.40
2022-08-06T15:11:06.483Z,0.50
2022-08-06T15:13:42.429Z,0.30
2022-08-06T15:16:11.094Z,0.32
2022-08-06T15:19:20.710Z,0.40
2022-08-06T15:21:54.823Z,0.68
2022-08-06T15:24:25.389Z,0.30
2022-08-06T15:26:57.014Z,0.40
2022-08-06T15:29:26.115Z,0.40
2022-08-06T15:31:58.853Z,0.40
2022-08-06T15:34:30.442Z,0.38
2022-08-06T15:37:02.883Z,0.40
2022-08-06T15:39:51.569Z,0.30
2022-08-06T15:42:24.066Z,0.35
2022-08-06T15:47:32.347Z,0.32
2022-08-06T15:50:04.381Z,0.40
2022-08-06T15:52:42.640Z,0.30
2022-08-06T15:55:16.126Z,0.50
2022-08-06T15:58:05.278Z,0.60
2022-08-06T16:00:37.083Z,0.47
2022-08-06T16:03:11.483Z,0.30
2022-08-06T16:06:12.961Z,0.32
2022-08-06T16:08:34.766Z,0.40
2022-08-06T16:11:13.777Z,0.40
2022-08-06T16:13:53.776Z,0.40
2022-08-06T16:16:25.178Z,0.45
2022-08-06T16:19:03.107Z,0.50
2022-08-06T16:21:33.883Z,0.60
2022-08-06T16:24:05.690Z,0.50
2022-08-06T16:29:20.038Z,0.50
2022-08-06T16:31:54.126Z,0.57
2022-08-06T16:34:30.339Z,0.57
2022-08-06T16:37:24.151Z,0.47
2022-08-06T16:39:59.985Z,0.60
2022-08-06T16:42:30.195Z,0.30
2022-08-06T16:45:02.623Z,0.65
2022-08-06T16:48:20.552Z,0.40
2022-08-06T16:50:36.658Z,0.50
2022-08-06T16:54:11.908Z,0.80
2022-08-06T16:55:55.391Z,0.57
2022-08-06T16:58:34.591Z,0.45
2022-08-06T17:02:14.553Z,0.35
2022-08-06T17:04:21.639Z,0.40
2022-08-06T17:06:55.164Z,0.40
2022-08-06T17:09:25.346Z,0.40
2022-08-06T17:11:58.644Z,0.50
2022-08-06T17:14:33.055Z,0.30
2022-08-06T17:17:05.390Z,0.32
2022-08-06T17:19:38.037Z,0.43
2022-08-06T17:22:10.732Z,0.40
2022-08-06T17:27:44.278Z,0.40
2022-08-06T17:30:18.787Z,0.30
2022-08-06T17:32:48.567Z,0.30
2022-08-06T17:35:20.724Z,0.40
2022-08-06T17:37:51.628Z,0.40
2022-08-06T17:43:13.036Z,0.40
2022-08-06T17:46:00.286Z,0.50
2022-08-06T17:48:38.652Z,0.20
2022-08-06T17:51:10.001Z,0.30
2022-08-06T17:53:53.910Z,0.40
2022-08-06T17:56:30.670Z,0.47
2022-08-06T17:59:16.430Z,0.30
2022-08-06T18:01:50.909Z,0.50
2022-08-06T18:04:31.234Z,0.40
2022-08-06T18:07:11.854Z,0.60
2022-08-06T18:10:09.315Z,0.40
2022-08-06T18:12:49.282Z,0.40
2022-08-06T18:15:20.500Z,0.40
2022-08-06T18:18:03.852Z,0.43
2022-08-06T18:20:38.933Z,0.40
2022-08-06T18:23:20.718Z,0.50
2022-08-06T18:26:02.278Z,0.60
2022-08-06T18:28:39.880Z,0.50
2022-08-06T18:31:20.098Z,0.47
2022-08-06T18:33:53.758Z,0.43
2022-08-06T18:36:30.336Z,0.50
2022-08-06T18:39:12.984Z,0.50
2022-08-06T18:41:56.681Z,0.40
2022-08-06T18:44:27.397Z,0.43
2022-08-06T18:47:03.496Z,0.40
2022-08-06T18:52:22.910Z,0.50
2022-08-06T18:54:59.972Z,0.50
2022-08-06T18:57:38.322Z,0.60
2022-08-06T19:00:24.102Z,0.50
2022-08-06T19:03:01.625Z,0.55
2022-08-06T19:05:30.972Z,0.50
2022-08-06T19:08:09.292Z,0.52
2022-08-06T19:10:37.257Z,0.60
2022-08-06T19:13:10.670Z,0.47
2022-08-06T19:15:46.470Z,0.50
2022-08-06T19:18:25.716Z,0.50
2022-08-06T19:20:54.512Z,0.63
2022-08-06T19:24:03.100Z,0.55
2022-08-06T19:26:12.251Z,0.90
2022-08-06T19:28:49.652Z,0.60
2022-08-06T19:31:23.662Z,0.60
2022-08-06T19:34:18.411Z,0.60
2022-08-06T19:36:52.080Z,0.60
2022-08-06T19:39:58.368Z,0.57
2022-08-06T19:42:31.764Z,0.40
2022-08-06T19:45:03.868Z,0.40
2022-08-06T19:47:49.155Z,0.60
2022-08-06T19:50:22.415Z,0.50
2022-08-06T19:52:51.730Z,0.80
2022-08-06T19:56:09.025Z,0.50
2022-08-06T19:58:26.670Z,0.40
2022-08-06T20:01:32.063Z,0.60
2022-08-06T20:03:57.872Z,0.40
2022-08-06T20:06:30.047Z,0.38
2022-08-06T20:09:26.813Z,0.60
2022-08-06T20:12:04.379Z,0.60
2022-08-06T20:14:35.743Z,0.50
2022-08-06T20:17:04.700Z,0.68
2022-08-06T20:20:05.483Z,0.40
2022-08-06T20:22:23.553Z,0.50
2022-08-06T20:24:53.618Z,0.60
2022-08-06T20:28:39.745Z,0.43
2022-08-06T20:30:13.538Z,0.40
2022-08-06T20:32:42.275Z,0.60
2022-08-06T20:35:14.303Z,0.47
2022-08-06T20:37:45.159Z,0.47
2022-08-06T20:40:37.251Z,0.40
2022-08-06T20:44:06.141Z,0.60
2022-08-06T20:46:02.580Z,0.50
2022-08-06T20:48:30.531Z,0.40
2022-08-06T20:50:58.848Z,0.30
2022-08-06T20:53:30.121Z,0.40
2022-08-06T20:56:03.278Z,0.57
2022-08-06T20:58:32.461Z,0.50
2022-08-06T21:01:02.018Z,0.43
2022-08-06T21:05:14.157Z,0.40
2022-08-06T21:06:22.760Z,0.40
2022-08-06T21:08:51.776Z,0.30
2022-08-06T21:11:20.836Z,0.40
2022-08-06T21:13:59.932Z,0.60
2022-08-06T21:16:51.765Z,0.50
2022-08-06T21:19:23.550Z,0.50
2022-08-06T21:22:09.575Z,0.50
2022-08-06T21:24:38.540Z,0.68
2022-08-06T21:27:09.659Z,0.70
2022-08-06T21:30:09.685Z,0.55
2022-08-06T21:32:36.005Z,0.65
2022-08-06T21:35:10.857Z,0.50
2022-08-06T21:37:57.904Z,0.40
2022-08-06T21:40:33.015Z,0.60
2022-08-06T21:43:02.966Z,0.65
2022-08-06T21:45:58.563Z,0.57
2022-08-06T21:48:29.971Z,0.30
2022-08-06T21:50:59.675Z,0.40
2022-08-06T21:53:53.154Z,0.43
2022-08-06T21:56:36.667Z,0.60
2022-08-06T21:59:10.335Z,0.63
2022-08-06T22:02:09.798Z,0.50
2022-08-06T22:04:51.585Z,0.50
2022-08-06T22:07:15.222Z,0.40
2022-08-06T22:09:46.606Z,0.60
2022-08-06T22:12:36.984Z,0.75
2022-08-06T22:18:01.320Z,0.45
2022-08-06T22:20:25.304Z,0.40
2022-08-06T22:22:58.183Z,0.47
2022-08-06T22:25:30.344Z,0.50
2022-08-06T22:28:02.014Z,0.40
2022-08-06T22:30:33.675Z,0.50
2022-08-06T22:33:10.128Z,0.50
2022-08-06T22:35:57.842Z,0.47
2022-08-06T22:38:32.051Z,0.70
2022-08-06T22:41:01.093Z,0.60
2022-08-06T22:43:51.740Z,0.50
2022-08-06T22:46:17.782Z,0.50
2022-08-06T22:48:49.869Z,0.50
2022-08-06T22:51:34.441Z,0.70
2022-08-06T22:54:26.511Z,0.60
2022-08-06T22:57:04.732Z,0.63
2022-08-06T23:00:12.224Z,0.75
2022-08-06T23:02:57.713Z,0.70
2022-08-06T23:05:27.365Z,0.75
2022-08-06T23:07:59.957Z,0.80
2022-08-06T23:10:30.320Z,0.75
2022-08-06T23:12:58.117Z,0.70
2022-08-06T23:15:39.041Z,0.60
2022-08-06T23:18:09.920Z,0.52
2022-08-06T23:20:41.440Z,0.43
2022-08-06T23:23:12.025Z,0.70
2022-08-06T23:26:00.396Z,0.43
2022-08-06T23:28:29.353Z,0.60
2022-08-06T23:30:58.362Z,0.60
2022-08-06T23:33:38.453Z,0.73
2022-08-06T23:36:09.372Z,0.55
2022-08-06T23:38:43.624Z,0.52
2022-08-06T23:41:19.625Z,0.60
2022-08-06T23:43:49.636Z,0.60
2022-08-06T23:46:19.840Z,0.40
2022-08-06T23:48:57.781Z,0.40
2022-08-06T23:51:35.931Z,0.47
2022-08-06T23:54:23.302Z,0.32
2022-08-06T23:56:57.574Z,0.60
2022-08-06T23:59:45.216Z,0.40
